createdAt,value
2022-10-10T00:02:06.507Z,99283.16
2022-10-10T00:04:53.190Z,99277.22
2022-10-10T00:07:38.609Z,99279.22
2022-10-10T00:10:23.937Z,99283.56
2022-10-10T00:13:09.503Z,99279.22
2022-10-10T00:15:54.981Z,99272.47
2022-10-10T00:18:41.805Z,99277.63
2022-10-10T00:21:27.358Z,99275.66
2022-10-10T00:24:12.605Z,99267.31
2022-10-10T00:26:57.967Z,99270.53
2022-10-10T00:29:43.187Z,99259.44
2022-10-10T00:32:28.578Z,99261.41
2022-10-10T00:35:13.998Z,99253.47
2022-10-10T00:37:59.242Z,99253.91
2022-10-10T00:40:54.145Z,99253.47
2022-10-10T00:43:40.512Z,99254.69
2022-10-10T00:46:25.982Z,99249.91
2022-10-10T00:49:21.164Z,99252.69
2022-10-10T00:52:09.811Z,99242.81
2022-10-10T00:54:55.002Z,99242.81
2022-10-10T00:57:41.040Z,99249.13
2022-10-10T01:00:26.630Z,99233.28
2022-10-10T01:03:12.256Z,99233.28
2022-10-10T01:05:57.887Z,99228.13
2022-10-10T01:08:43.397Z,99232.50
2022-10-10T01:11:38.075Z,99225.38
2022-10-10T01:14:29.408Z,99219.81
2022-10-10T01:17:26.205Z,99219.03
2022-10-10T01:20:20.495Z,99222.59
2022-10-10T01:23:30.562Z,99213.09
2022-10-10T01:26:34.464Z,99208.72
2022-10-10T01:29:43.258Z,99202.41
2022-10-10T01:32:52.097Z,99200.06
2022-10-10T01:35:50.795Z,99193.72
2022-10-10T01:38:59.575Z,99193.72
2022-10-10T01:41:58.302Z,99196.88
2022-10-10T01:44:45.278Z,99200.06
2022-10-10T01:47:30.383Z,99198.84
2022-10-10T01:50:21.027Z,99198.84
2022-10-10T01:53:56.086Z,99194.53
2022-10-10T01:57:15.971Z,99187.78
2022-10-10T02:00:17.341Z,99181.84
2022-10-10T02:03:16.777Z,99179.50
2022-10-10T02:06:13.139Z,99171.16
2022-10-10T02:09:05.245Z,99169.22
2022-10-10T02:11:51.138Z,99165.63
2022-10-10T02:14:42.659Z,99158.13
2022-10-10T02:17:29.776Z,99155.75
2022-10-10T02:20:20.781Z,99157.31
2022-10-10T02:23:08.234Z,99152.97
2022-10-10T02:25:57.099Z,99151.00
2022-10-10T02:28:57.550Z,99148.59
2022-10-10T02:32:11.979Z,99143.06
2022-10-10T02:35:03.325Z,99137.50
2022-10-10T02:37:49.839Z,99131.19
2022-10-10T02:40:36.092Z,99131.97
2022-10-10T02:43:22.378Z,99120.09
2022-10-10T02:46:12.167Z,99117.31
2022-10-10T02:48:58.512Z,99112.56
2022-10-10T02:51:43.841Z,99113.78
2022-10-10T02:54:29.049Z,99111.78
2022-10-10T02:57:14.396Z,99111.00
2022-10-10T02:59:59.674Z,99106.63
2022-10-10T03:02:46.318Z,99112.56
2022-10-10T03:05:31.920Z,99109.41
2022-10-10T03:08:17.352Z,99108.63
2022-10-10T03:11:02.697Z,99106.25
2022-10-10T03:13:47.782Z,99099.13
2022-10-10T03:16:33.131Z,99094.38
2022-10-10T03:19:18.645Z,99089.22
2022-10-10T03:22:04.253Z,99093.22
2022-10-10T03:24:49.948Z,99092.00
2022-10-10T03:27:35.295Z,99084.50
2022-10-10T03:30:20.717Z,99082.91
2022-10-10T03:33:07.273Z,99077.38
2022-10-10T03:35:52.579Z,99082.13
2022-10-10T03:38:39.808Z,99079.38
2022-10-10T03:41:25.501Z,99072.22
2022-10-10T03:44:10.631Z,99071.06
2022-10-10T03:46:56.041Z,99073.81
2022-10-10T03:49:41.191Z,99068.28
2022-10-10T03:52:26.497Z,99065.50
2022-10-10T03:55:11.908Z,99058.75
2022-10-10T03:57:57.338Z,99053.63
2022-10-10T04:00:43.194Z,99048.88
2022-10-10T04:03:29.371Z,99046.09
2022-10-10T04:06:15.087Z,99046.09
2022-10-10T04:09:00.758Z,99041.75
2022-10-10T04:11:45.885Z,99044.88
2022-10-10T04:14:31.285Z,99044.09
2022-10-10T04:17:16.892Z,99038.56
2022-10-10T04:20:02.180Z,99038.16
2022-10-10T04:22:47.699Z,99042.13
2022-10-10T04:25:33.337Z,99036.16
2022-10-10T04:28:19.299Z,99038.13
2022-10-10T04:31:05.215Z,99035.31
2022-10-10T04:33:50.733Z,99042.41
2022-10-10T04:36:36.871Z,99032.06
2022-10-10T04:39:22.291Z,99039.97
2022-10-10T04:42:07.756Z,99040.75
2022-10-10T04:44:53.093Z,99032.00
2022-10-10T04:47:38.308Z,99024.47
2022-10-10T04:50:23.714Z,99010.97
2022-10-10T04:53:09.144Z,99015.31
2022-10-10T04:55:54.596Z,99013.72
2022-10-10T04:58:39.854Z,99026.34
2022-10-10T05:01:25.188Z,99014.84
2022-10-10T05:04:10.604Z,99019.19
2022-10-10T05:06:55.974Z,99009.72
2022-10-10T05:09:41.231Z,99012.13
2022-10-10T05:12:26.831Z,99001.44
2022-10-10T05:15:12.553Z,98996.34
2022-10-10T05:17:58.361Z,98997.13
2022-10-10T05:20:47.731Z,98995.13
2022-10-10T05:23:34.707Z,98990.78
2022-10-10T05:26:21.204Z,98997.13
2022-10-10T05:29:06.474Z,98995.91
2022-10-10T05:31:52.135Z,99000.25
2022-10-10T05:34:38.351Z,99001.81
2022-10-10T05:37:24.415Z,99000.25
2022-10-10T05:40:09.930Z,98994.72
2022-10-10T05:42:55.256Z,98988.75
2022-10-10T05:45:41.003Z,98993.94
2022-10-10T05:48:27.108Z,98997.47
2022-10-10T05:51:13.376Z,98995.06
2022-10-10T05:54:00.218Z,98989.16
2022-10-10T05:56:46.447Z,98993.09
2022-10-10T05:59:31.803Z,98984.81
2022-10-10T06:02:17.266Z,98982.47
2022-10-10T06:05:02.808Z,98992.34
2022-10-10T06:08:09.323Z,98988.38
2022-10-10T06:10:54.286Z,98994.72
2022-10-10T06:13:39.729Z,98998.66
2022-10-10T06:16:27.260Z,98987.59
2022-10-10T06:19:15.145Z,98989.16
2022-10-10T06:22:01.662Z,98989.16
2022-10-10T06:24:52.167Z,98992.72
2022-10-10T06:27:38.668Z,98989.94
2022-10-10T06:30:24.225Z,98993.94
2022-10-10T06:33:12.162Z,98989.94
2022-10-10T06:35:58.122Z,98987.16
2022-10-10T06:38:45.916Z,99001.03
2022-10-10T06:41:31.464Z,98997.13
2022-10-10T06:44:17.994Z,99003.88
2022-10-10T06:47:03.657Z,99003.06
2022-10-10T06:49:49.273Z,98999.53
2022-10-10T06:52:34.708Z,99007.06
2022-10-10T06:55:19.965Z,99007.06
2022-10-10T06:58:05.850Z,99003.91
2022-10-10T07:00:55.556Z,99012.25
2022-10-10T07:03:40.752Z,99015.78
2022-10-10T07:06:26.054Z,99011.81
2022-10-10T07:09:11.265Z,99012.66
2022-10-10T07:11:56.559Z,99013.88
2022-10-10T07:14:41.943Z,99019.41
2022-10-10T07:17:27.265Z,99011.47
2022-10-10T07:20:13.026Z,99018.97
2022-10-10T07:22:58.389Z,99015.88
2022-10-10T07:25:44.213Z,99015.91
2022-10-10T07:28:30.068Z,99018.28
2022-10-10T07:31:16.035Z,99011.13
2022-10-10T07:34:01.538Z,99013.91
2022-10-10T07:36:50.257Z,99026.22
2022-10-10T07:39:35.680Z,99023.44
2022-10-10T07:42:21.692Z,99021.44
2022-10-10T07:45:07.307Z,99013.91
2022-10-10T07:47:53.969Z,99021.03
2022-10-10T07:50:44.115Z,99015.50
2022-10-10T07:53:29.616Z,99016.28
2022-10-10T07:56:15.023Z,99022.59
2022-10-10T07:59:00.995Z,99015.50
2022-10-10T08:01:46.273Z,99012.28
2022-10-10T08:04:31.409Z,99015.53
2022-10-10T08:07:16.688Z,99006.44
2022-10-10T08:10:02.595Z,99021.06
2022-10-10T08:12:48.167Z,99025.06
2022-10-10T08:15:34.130Z,99021.50
2022-10-10T08:18:20.154Z,99023.84
2022-10-10T08:21:08.898Z,99021.06
2022-10-10T08:23:55.480Z,99019.53
2022-10-10T08:26:40.750Z,99025.06
2022-10-10T08:29:26.191Z,99013.91
2022-10-10T08:32:11.465Z,99019.81
2022-10-10T08:34:56.849Z,99020.56
2022-10-10T08:37:42.283Z,99013.75
2022-10-10T08:40:28.809Z,99012.91
2022-10-10T08:43:31.856Z,99020.81
2022-10-10T08:46:27.315Z,99012.06
2022-10-10T08:49:43.548Z,99012.06
2022-10-10T08:52:41.650Z,99010.88
2022-10-10T08:55:33.770Z,99013.22
2022-10-10T08:58:18.893Z,99020.78
2022-10-10T09:01:15.643Z,99014.00
2022-10-10T09:04:03.402Z,99015.91
2022-10-10T09:07:10.863Z,99007.97
2022-10-10T09:10:06.279Z,99004.78
2022-10-10T09:13:07.455Z,99000.00
2022-10-10T09:16:00.480Z,99008.69
2022-10-10T09:19:07.643Z,98999.19
2022-10-10T09:21:57.449Z,99003.16
2022-10-10T09:25:00.049Z,99002.38
2022-10-10T09:27:58.617Z,99006.38
2022-10-10T09:30:53.009Z,99006.28
2022-10-10T09:33:58.995Z,99003.94
2022-10-10T09:36:45.587Z,99002.34
2022-10-10T09:39:48.152Z,98985.69
2022-10-10T09:42:39.493Z,98995.56
2022-10-10T09:45:32.916Z,98995.16
2022-10-10T09:48:19.231Z,98988.81
2022-10-10T09:51:07.588Z,98994.00
2022-10-10T09:53:53.081Z,98989.59
2022-10-10T09:56:58.657Z,98985.56
2022-10-10T09:59:45.805Z,98996.66
2022-10-10T10:02:31.508Z,98988.34
2022-10-10T10:05:26.472Z,98985.56
2022-10-10T10:08:31.751Z,98983.56
2022-10-10T10:11:28.833Z,98986.69
2022-10-10T10:14:27.455Z,98979.94
2022-10-10T10:17:16.841Z,98985.94
2022-10-10T10:20:02.178Z,98983.53
2022-10-10T10:22:47.701Z,98987.47
2022-10-10T10:25:37.677Z,98987.84
2022-10-10T10:28:23.447Z,98977.13
2022-10-10T10:31:20.417Z,98972.78
2022-10-10T10:34:20.806Z,98979.88
2022-10-10T10:37:27.691Z,98981.44
2022-10-10T10:40:29.846Z,98971.56
2022-10-10T10:43:14.841Z,98965.59
2022-10-10T10:46:11.731Z,98969.16
2022-10-10T10:49:02.129Z,98971.16
2022-10-10T10:51:50.680Z,98956.06
2022-10-10T10:54:42.400Z,98949.75
2022-10-10T10:57:45.447Z,98942.59
2022-10-10T11:01:20.947Z,98942.19
2022-10-10T11:05:20.169Z,98942.97
2022-10-10T11:08:12.798Z,98940.19
2022-10-10T11:11:23.445Z,98934.66
2022-10-10T11:14:24.251Z,98934.66
2022-10-10T11:17:30.073Z,98931.88
2022-10-10T11:20:49.862Z,98931.09
2022-10-10T11:24:06.299Z,98926.75
2022-10-10T11:26:57.330Z,98926.75
2022-10-10T11:29:59.014Z,98931.50
2022-10-10T11:32:54.133Z,98925.53
2022-10-10T11:35:46.469Z,98927.53
2022-10-10T11:38:50.788Z,98922.78
2022-10-10T11:42:15.018Z,98918.00
2022-10-10T11:45:04.436Z,98926.31
2022-10-10T11:47:52.881Z,98920.78
2022-10-10T11:50:43.109Z,98916.03
2022-10-10T11:53:41.311Z,98916.81
2022-10-10T11:56:41.974Z,98915.22
2022-10-10T11:59:49.563Z,98922.78
2022-10-10T12:02:37.165Z,98914.88
2022-10-10T12:05:29.010Z,98916.44
2022-10-10T12:08:20.425Z,98903.00
2022-10-10T12:11:24.869Z,98905.34
2022-10-10T12:14:16.011Z,98906.53
2022-10-10T12:17:01.717Z,98908.53
2022-10-10T12:19:50.361Z,98909.31
2022-10-10T12:22:35.555Z,98902.22
2022-10-10T12:25:25.363Z,98905.75
2022-10-10T12:28:13.943Z,98905.75
2022-10-10T12:31:05.848Z,98909.31
2022-10-10T12:33:51.309Z,98905.00
2022-10-10T12:36:39.601Z,98898.22
2022-10-10T12:39:24.994Z,98891.13
2022-10-10T12:42:59.653Z,98884.78
2022-10-10T12:45:53.674Z,98890.34
2022-10-10T12:48:39.598Z,98884.03
2022-10-10T12:51:25.585Z,98891.13
2022-10-10T12:54:28.388Z,98883.56
2022-10-10T12:57:25.737Z,98880.03
2022-10-10T13:00:19.194Z,98890.69
2022-10-10T13:03:13.198Z,98888.72
2022-10-10T13:06:25.830Z,98887.84
2022-10-10T13:09:24.153Z,98893.41
2022-10-10T13:12:23.369Z,98886.28
2022-10-10T13:15:20.413Z,98887.06
2022-10-10T13:18:06.086Z,98893.75
2022-10-10T13:20:56.273Z,98887.78
2022-10-10T13:26:53.483Z,98877.81
2022-10-10T13:29:40.908Z,98882.97
2022-10-10T13:32:29.178Z,98878.13
2022-10-10T13:35:18.678Z,98880.03
2022-10-10T13:38:06.030Z,98889.50
2022-10-10T13:40:52.478Z,98886.31
2022-10-10T13:43:40.602Z,98880.75
2022-10-10T13:46:33.730Z,98882.66
2022-10-10T13:49:30.073Z,98877.13
2022-10-10T13:52:24.649Z,98878.69
2022-10-10T13:55:22.684Z,98871.16
2022-10-10T13:58:11.217Z,98872.28
2022-10-10T14:01:04.686Z,98876.97
2022-10-10T14:03:51.781Z,98873.81
2022-10-10T14:06:37.371Z,98867.03
2022-10-10T14:09:31.075Z,98874.16
2022-10-10T14:12:27.503Z,98867.38
2022-10-10T14:15:40.875Z,98868.97
2022-10-10T14:18:26.463Z,98869.31
2022-10-10T14:21:12.232Z,98873.66
2022-10-10T14:23:57.740Z,98867.31
2022-10-10T14:26:43.674Z,98863.69
2022-10-10T14:29:29.595Z,98861.72
2022-10-10T14:32:15.459Z,98861.72
2022-10-10T14:35:00.844Z,98855.34
2022-10-10T14:37:46.143Z,98858.56
2022-10-10T14:40:33.139Z,98862.47
2022-10-10T14:43:23.625Z,98860.13
2022-10-10T14:46:17.799Z,98852.16
2022-10-10T14:49:03.607Z,98857.00
2022-10-10T14:51:49.033Z,98848.25
2022-10-10T14:54:34.693Z,98859.00
2022-10-10T14:57:22.295Z,98854.94
2022-10-10T15:00:13.824Z,98852.50
2022-10-10T15:02:59.290Z,98847.22
2022-10-10T15:05:45.271Z,98847.22
2022-10-10T15:08:30.786Z,98856.00
2022-10-10T15:11:17.951Z,98844.78
2022-10-10T15:14:03.166Z,98847.22
2022-10-10T15:16:48.995Z,98849.16
2022-10-10T15:19:34.619Z,98851.06
2022-10-10T15:22:20.261Z,98846.28
2022-10-10T15:25:07.697Z,98857.38
2022-10-10T15:27:53.080Z,98856.59
2022-10-10T15:30:42.868Z,98854.19
2022-10-10T15:33:28.862Z,98860.50
2022-10-10T15:36:18.394Z,98865.28
2022-10-10T15:39:04.335Z,98868.06
2022-10-10T15:41:49.897Z,98864.53
2022-10-10T15:44:35.476Z,98870.06
2022-10-10T15:47:21.681Z,98876.81
2022-10-10T15:50:09.701Z,98882.38
2022-10-10T15:52:55.192Z,98879.59
2022-10-10T15:55:45.684Z,98883.59
2022-10-10T15:58:30.788Z,98894.72
2022-10-10T16:01:18.822Z,98897.91
2022-10-10T16:04:06.352Z,98885.59
2022-10-10T16:06:59.516Z,98903.38
2022-10-10T16:09:58.920Z,98896.63
2022-10-10T16:12:44.217Z,98901.31
2022-10-10T16:15:29.455Z,98907.25
2022-10-10T16:18:14.766Z,98908.84
2022-10-10T16:21:00.527Z,98912.78
2022-10-10T16:23:47.860Z,98913.91
2022-10-10T16:26:35.468Z,98914.28
2022-10-10T16:29:21.029Z,98909.50
2022-10-10T16:32:06.313Z,98911.84
2022-10-10T16:34:51.757Z,98922.16
2022-10-10T16:37:38.041Z,98913.81
2022-10-10T16:40:24.235Z,98917.41
2022-10-10T16:43:09.968Z,98922.97
2022-10-10T16:45:55.499Z,98928.53
2022-10-10T16:48:41.927Z,98933.63
2022-10-10T16:51:29.810Z,98928.44
2022-10-10T16:54:15.918Z,98936.41
2022-10-10T16:57:01.454Z,98942.75
2022-10-10T16:59:47.269Z,98949.94
2022-10-10T17:02:33.402Z,98948.03
2022-10-10T17:05:19.640Z,98950.09
2022-10-10T17:08:05.012Z,98950.94
2022-10-10T17:10:50.289Z,98956.16
2022-10-10T17:13:37.453Z,98946.22
2022-10-10T17:17:07.156Z,98955.78
2022-10-10T17:19:33.868Z,98959.69
2022-10-10T17:22:19.181Z,98968.44
2022-10-10T17:25:04.959Z,98958.94
2022-10-10T17:27:50.469Z,98958.50
2022-10-10T17:30:36.162Z,98958.06
2022-10-10T17:33:22.300Z,98958.50
2022-10-10T17:36:11.171Z,98955.78
2022-10-10T17:38:57.169Z,98956.22
2022-10-10T17:41:42.475Z,98952.31
2022-10-10T17:44:28.451Z,98955.59
2022-10-10T17:47:14.164Z,98963.91
2022-10-10T17:49:59.980Z,98954.88
2022-10-10T17:52:45.499Z,98964.84
2022-10-10T17:55:31.353Z,98962.91
2022-10-10T17:58:17.204Z,98957.78
2022-10-10T18:01:03.878Z,98964.97
2022-10-10T18:03:49.350Z,98962.19
2022-10-10T18:06:37.764Z,98964.16
2022-10-10T18:09:23.111Z,98963.41
2022-10-10T18:12:08.512Z,98960.22
2022-10-10T18:14:54.724Z,98957.91
2022-10-10T18:17:40.328Z,98973.75
2022-10-10T18:20:26.009Z,98975.38
2022-10-10T18:23:11.230Z,98991.25
2022-10-10T18:26:05.425Z,98981.78
2022-10-10T18:28:52.786Z,98990.53
2022-10-10T18:31:39.211Z,98989.41
2022-10-10T18:34:24.758Z,98992.59
2022-10-10T18:37:10.754Z,98995.34
2022-10-10T18:39:56.306Z,99003.31
2022-10-10T18:42:42.228Z,99008.97
2022-10-10T18:45:28.071Z,99000.22
2022-10-10T18:48:13.636Z,99012.91
2022-10-10T18:51:03.388Z,99006.22
2022-10-10T18:53:48.778Z,99008.22
2022-10-10T18:56:36.177Z,99003.91
2022-10-10T18:59:22.243Z,99001.53
2022-10-10T19:02:09.616Z,99006.72
2022-10-10T19:04:55.131Z,99011.50
2022-10-10T19:07:40.428Z,99009.53
2022-10-10T19:10:25.965Z,99011.53
2022-10-10T19:13:11.808Z,99017.09
2022-10-10T19:16:03.929Z,99019.50
2022-10-10T19:18:49.169Z,99014.41
2022-10-10T19:21:37.197Z,99021.53
2022-10-10T19:24:23.072Z,99020.78
2022-10-10T19:27:08.309Z,99020.78
2022-10-10T19:29:53.612Z,99024.31
2022-10-10T19:32:39.004Z,99025.94
2022-10-10T19:35:24.222Z,99025.94
2022-10-10T19:38:10.761Z,99035.50
2022-10-10T19:40:56.805Z,99026.81
2022-10-10T19:43:44.446Z,99028.34
2022-10-10T19:46:31.970Z,99027.59
2022-10-10T19:49:18.838Z,99041.84
2022-10-10T19:52:04.972Z,99039.53
2022-10-10T19:54:52.986Z,99047.84
2022-10-10T19:57:38.185Z,99043.50
2022-10-10T20:00:23.557Z,99041.16
2022-10-10T20:03:08.996Z,99046.72
2022-10-10T20:06:00.542Z,99050.25
2022-10-10T20:08:46.660Z,99046.34
2022-10-10T20:11:32.485Z,99048.31
2022-10-10T20:14:18.194Z,99051.53
2022-10-10T20:17:03.580Z,99053.06
2022-10-10T20:19:48.921Z,99064.16
2022-10-10T20:22:34.618Z,99063.38
2022-10-10T20:25:20.181Z,99068.53
2022-10-10T20:28:05.876Z,99066.56
2022-10-10T20:30:51.659Z,99063.81
2022-10-10T20:33:37.286Z,99063.81
2022-10-10T20:36:23.235Z,99065.03
2022-10-10T20:39:12.864Z,99067.78
2022-10-10T20:41:58.096Z,99077.66
2022-10-10T20:44:43.309Z,99078.47
2022-10-10T20:47:28.439Z,99086.44
2022-10-10T20:50:14.327Z,99093.94
2022-10-10T20:52:59.889Z,99097.16
2022-10-10T20:55:45.178Z,99102.25
2022-10-10T20:58:30.635Z,99103.09
2022-10-10T21:01:19.020Z,99109.06
2022-10-10T21:04:08.023Z,99115.03
2022-10-10T21:06:53.440Z,99120.22
2022-10-10T21:09:38.899Z,99118.63
2022-10-10T21:12:24.083Z,99119.84
2022-10-10T21:15:09.886Z,99129.34
2022-10-10T21:17:55.543Z,99128.56
2022-10-10T21:20:40.909Z,99128.56
2022-10-10T21:23:27.309Z,99134.91
2022-10-10T21:26:18.218Z,99132.56
2022-10-10T21:29:04.007Z,99124.25
2022-10-10T21:31:49.336Z,99125.03
2022-10-10T21:34:34.526Z,99123.81
2022-10-10T21:37:19.669Z,99127.78
2022-10-10T21:40:05.494Z,99123.81
2022-10-10T21:42:50.803Z,99131.34
2022-10-10T21:45:38.092Z,99134.91
2022-10-10T21:48:23.478Z,99134.91
2022-10-10T21:51:09.408Z,99137.66
2022-10-10T21:53:56.770Z,99139.66
2022-10-10T21:56:42.221Z,99136.91
2022-10-10T21:59:30.303Z,99147.97
2022-10-10T22:02:15.601Z,99148.75
2022-10-10T22:05:02.500Z,99149.97
2022-10-10T22:07:47.531Z,99141.66
2022-10-10T22:10:34.478Z,99141.66
2022-10-10T22:13:20.069Z,99153.94
2022-10-10T22:16:06.305Z,99147.22
2022-10-10T22:18:56.522Z,99156.31
2022-10-10T22:21:42.029Z,99170.16
2022-10-10T22:24:27.238Z,99161.84
2022-10-10T22:27:12.410Z,99165.41
2022-10-10T22:29:57.635Z,99163.84
2022-10-10T22:32:42.833Z,99172.16
2022-10-10T22:35:28.186Z,99178.47
2022-10-10T22:38:13.367Z,99169.38
2022-10-10T22:40:58.553Z,99172.16
2022-10-10T22:43:43.762Z,99177.72
2022-10-10T22:46:29.549Z,99178.47
2022-10-10T22:49:14.788Z,99187.56
2022-10-10T22:52:00.149Z,99192.75
2022-10-10T22:54:45.394Z,99193.13
2022-10-10T22:57:30.643Z,99197.13
2022-10-10T23:00:16.410Z,99202.66
2022-10-10T23:03:01.599Z,99204.66
2022-10-10T23:05:47.002Z,99210.19
2022-10-10T23:08:33.391Z,99210.19
2022-10-10T23:11:18.539Z,99210.97
2022-10-10T23:14:04.700Z,99219.28
2022-10-10T23:16:49.767Z,99224.47
2022-10-10T23:19:35.123Z,99224.47
2022-10-10T23:22:20.398Z,99231.22
2022-10-10T23:25:06.138Z,99230.00
2022-10-10T23:27:51.524Z,99232.00
2022-10-10T23:30:44.123Z,99239.53
2022-10-10T23:33:33.264Z,99246.28
2022-10-10T23:36:21.403Z,99245.09
2022-10-10T23:39:09.827Z,99248.25
2022-10-10T23:41:55.633Z,99257.38
2022-10-10T23:44:40.820Z,99253.81
2022-10-10T23:47:26.270Z,99263.31
2022-10-10T23:50:12.000Z,99269.28
2022-10-10T23:52:57.407Z,99270.06
2022-10-10T23:55:42.906Z,99275.22
2022-10-10T23:58:28.144Z,99283.16
